createdAt,value
2022-12-27T00:01:26.836Z,98951.38
2022-12-27T00:04:16.133Z,98949.75
2022-12-27T00:07:04.044Z,98943.41
2022-12-27T00:09:52.660Z,98953.34
2022-12-27T00:12:40.321Z,98958.41
2022-12-27T00:15:28.309Z,98958.41
2022-12-27T00:18:16.108Z,98963.28
2022-12-27T00:21:07.580Z,98981.50
2022-12-27T00:23:57.910Z,98989.00
2022-12-27T00:26:45.574Z,99003.31
2022-12-27T00:29:33.197Z,98999.72
2022-12-27T00:32:22.137Z,99017.63
2022-12-27T00:35:10.997Z,99017.94
2022-12-27T00:38:00.177Z,99028.13
2022-12-27T00:40:50.056Z,99027.69
2022-12-27T00:43:37.614Z,99033.34
2022-12-27T00:46:25.159Z,99042.81
2022-12-27T00:49:12.870Z,99043.44
2022-12-27T00:52:00.694Z,99047.41
2022-12-27T00:54:49.472Z,99058.34
2022-12-27T00:57:36.786Z,99062.31
2022-12-27T01:00:26.528Z,99059.25
2022-12-27T01:03:14.327Z,99063.94
2022-12-27T01:06:06.369Z,99070.63
2022-12-27T01:08:56.739Z,99070.06
2022-12-27T01:11:46.071Z,99075.44
2022-12-27T01:14:33.910Z,99075.19
2022-12-27T01:17:21.374Z,99083.34
2022-12-27T01:20:12.361Z,99088.59
2022-12-27T01:23:00.580Z,99090.84
2022-12-27T01:25:48.119Z,99104.19
2022-12-27T01:28:37.431Z,99105.69
2022-12-27T01:31:28.514Z,99113.22
2022-12-27T01:34:16.181Z,99119.88
2022-12-27T01:37:03.940Z,99132.25
2022-12-27T01:39:51.787Z,99135.91
2022-12-27T01:42:53.523Z,99145.75
2022-12-27T01:45:43.019Z,99157.41
2022-12-27T01:48:30.969Z,99158.22
2022-12-27T01:51:20.111Z,99162.16
2022-12-27T01:54:08.491Z,99176.50
2022-12-27T01:56:57.696Z,99174.22
2022-12-27T01:59:49.032Z,99179.75
2022-12-27T02:02:39.472Z,99186.28
2022-12-27T02:05:28.559Z,99182.72
2022-12-27T02:08:37.523Z,99186.47
2022-12-27T02:11:49.293Z,99188.59
2022-12-27T02:14:44.395Z,99191.31
2022-12-27T02:17:35.032Z,99199.13
2022-12-27T02:20:31.755Z,99198.78
2022-12-27T02:24:05.303Z,99204.28
2022-12-27T02:27:05.888Z,99202.94
2022-12-27T02:30:06.343Z,99209.97
2022-12-27T02:33:01.861Z,99221.41
2022-12-27T02:35:59.441Z,99220.06
2022-12-27T02:38:54.360Z,99223.78
2022-12-27T02:42:01.693Z,99232.91
2022-12-27T02:45:07.866Z,99231.53
2022-12-27T02:48:16.107Z,99234.50
2022-12-27T02:51:38.778Z,99234.66
2022-12-27T02:54:54.747Z,99239.41
2022-12-27T02:57:52.987Z,99251.84
2022-12-27T03:01:11.787Z,99245.22
2022-12-27T03:04:22.576Z,99242.16
2022-12-27T03:07:34.836Z,99258.03
2022-12-27T03:10:51.847Z,99260.16
2022-12-27T03:14:05.742Z,99257.78
2022-12-27T03:16:57.723Z,99259.78
2022-12-27T03:20:11.307Z,99264.41
2022-12-27T03:23:19.821Z,99267.13
2022-12-27T03:26:11.234Z,99269.97
2022-12-27T03:29:18.979Z,99278.00
2022-12-27T03:32:29.978Z,99279.22
2022-12-27T03:35:23.918Z,99282.16
2022-12-27T03:38:14.238Z,99275.53
2022-12-27T03:41:22.618Z,99273.16
2022-12-27T03:44:25.105Z,99276.16
2022-12-27T03:47:23.157Z,99278.13
2022-12-27T03:50:24.249Z,99277.38
2022-12-27T03:53:22.507Z,99277.13
2022-12-27T03:56:12.069Z,99287.75
2022-12-27T03:59:02.600Z,99285.19
2022-12-27T04:01:50.276Z,99285.19
2022-12-27T04:04:38.944Z,99289.69
2022-12-27T04:07:27.927Z,99289.69
2022-12-27T04:10:35.581Z,99292.59
2022-12-27T04:13:41.151Z,99300.75
2022-12-27T04:16:46.261Z,99299.72
2022-12-27T04:19:51.544Z,99302.44
2022-12-27T04:23:01.825Z,99298.28
2022-12-27T04:26:07.617Z,99301.81
2022-12-27T04:29:15.435Z,99308.88
2022-12-27T04:32:20.553Z,99302.25
2022-12-27T04:35:09.384Z,99310.47
2022-12-27T04:38:00.871Z,99312.22
2022-12-27T04:41:06.369Z,99313.00
2022-12-27T04:44:11.669Z,99309.59
2022-12-27T04:47:17.163Z,99308.06
2022-12-27T04:50:28.351Z,99307.13
2022-12-27T04:53:38.336Z,99313.28
2022-12-27T04:56:26.302Z,99319.72
2022-12-27T04:59:39.833Z,99309.59
2022-12-27T05:02:29.992Z,99314.00
2022-12-27T05:05:21.052Z,99310.75
2022-12-27T05:08:27.862Z,99326.59
2022-12-27T05:11:35.178Z,99327.72
2022-12-27T05:14:25.887Z,99334.50
2022-12-27T05:17:14.194Z,99327.72
2022-12-27T05:20:03.087Z,99334.50
2022-12-27T05:23:08.464Z,99340.81
2022-12-27T05:25:56.498Z,99341.81
2022-12-27T05:28:45.661Z,99349.72
2022-12-27T05:31:34.019Z,99356.66
2022-12-27T05:34:21.746Z,99365.56
2022-12-27T05:37:09.827Z,99359.66
2022-12-27T05:39:57.420Z,99369.00
2022-12-27T05:42:44.819Z,99359.00
2022-12-27T05:45:34.883Z,99360.91
2022-12-27T05:48:23.496Z,99357.78
2022-12-27T05:51:15.326Z,99356.09
2022-12-27T05:54:03.318Z,99361.50
2022-12-27T05:56:51.149Z,99366.69
2022-12-27T05:59:38.945Z,99366.53
2022-12-27T06:02:30.276Z,99363.94
2022-12-27T06:05:18.580Z,99362.09
2022-12-27T06:08:07.444Z,99366.28
2022-12-27T06:11:08.316Z,99367.47
2022-12-27T06:13:56.850Z,99360.44
2022-12-27T06:16:45.621Z,99354.25
2022-12-27T06:19:34.858Z,99355.22
2022-12-27T06:22:22.730Z,99355.03
2022-12-27T06:25:14.138Z,99356.56
2022-12-27T06:28:01.871Z,99361.47
2022-12-27T06:30:50.696Z,99358.06
2022-12-27T06:33:39.403Z,99357.25
2022-12-27T06:36:31.374Z,99371.84
2022-12-27T06:39:22.606Z,99364.78
2022-12-27T06:42:10.974Z,99364.78
2022-12-27T06:44:59.188Z,99372.81
2022-12-27T06:47:47.878Z,99374.53
2022-12-27T06:50:39.172Z,99374.34
2022-12-27T06:53:28.274Z,99382.09
2022-12-27T06:56:18.864Z,99396.44
2022-12-27T06:59:07.751Z,99399.13
2022-12-27T07:01:56.715Z,99398.66
2022-12-27T07:04:47.807Z,99397.59
2022-12-27T07:07:36.121Z,99398.56
2022-12-27T07:10:26.708Z,99387.78
2022-12-27T07:13:14.764Z,99403.75
2022-12-27T07:16:05.287Z,99403.41
2022-12-27T07:18:53.495Z,99412.31
2022-12-27T07:21:44.090Z,99417.97
2022-12-27T07:24:33.537Z,99412.19
2022-12-27T07:27:25.709Z,99417.47
2022-12-27T07:30:16.699Z,99409.84
2022-12-27T07:33:05.263Z,99425.06
2022-12-27T07:36:00.976Z,99421.53
2022-12-27T07:38:50.569Z,99423.06
2022-12-27T07:41:39.002Z,99423.44
2022-12-27T07:44:28.293Z,99433.13
2022-12-27T07:47:16.225Z,99443.25
2022-12-27T07:50:06.606Z,99437.75
2022-12-27T07:52:54.482Z,99436.69
2022-12-27T07:55:43.525Z,99437.47
2022-12-27T07:58:32.572Z,99448.00
2022-12-27T08:01:51.429Z,99446.00
2022-12-27T08:04:40.785Z,99450.97
2022-12-27T08:07:29.791Z,99444.88
2022-12-27T08:10:20.358Z,99443.03
2022-12-27T08:13:08.132Z,99448.28
2022-12-27T08:15:57.401Z,99447.44
2022-12-27T08:18:47.910Z,99454.72
2022-12-27T08:21:36.641Z,99460.75
2022-12-27T08:24:27.929Z,99462.03
2022-12-27T08:27:23.051Z,99456.59
2022-12-27T08:30:14.799Z,99448.56
2022-12-27T08:33:04.302Z,99447.38
2022-12-27T08:35:54.829Z,99448.41
2022-12-27T08:38:43.026Z,99443.47
2022-12-27T08:41:30.710Z,99439.22
2022-12-27T08:44:20.867Z,99431.81
2022-12-27T08:47:08.870Z,99448.28
2022-12-27T08:49:56.976Z,99449.44
2022-12-27T08:52:47.775Z,99448.66
2022-12-27T08:55:36.787Z,99457.47
2022-12-27T08:58:27.879Z,99459.06
2022-12-27T09:01:17.700Z,99458.84
2022-12-27T09:04:05.380Z,99471.38
2022-12-27T09:06:52.915Z,99477.69
2022-12-27T09:09:42.195Z,99478.25
2022-12-27T09:12:36.789Z,99475.09
2022-12-27T09:15:25.408Z,99480.66
2022-12-27T09:18:15.202Z,99498.13
2022-12-27T09:21:08.345Z,99500.28
2022-12-27T09:23:57.201Z,99505.53
2022-12-27T09:26:46.709Z,99491.03
2022-12-27T09:29:34.717Z,99501.53
2022-12-27T09:32:27.601Z,99501.53
2022-12-27T09:35:16.252Z,99490.72
2022-12-27T09:38:04.260Z,99504.22
2022-12-27T09:40:58.193Z,99503.84
2022-12-27T09:44:02.969Z,99514.03
2022-12-27T09:47:02.831Z,99510.75
2022-12-27T09:49:57.199Z,99515.69
2022-12-27T09:52:56.443Z,99509.34
2022-12-27T09:55:49.125Z,99513.41
2022-12-27T09:58:47.585Z,99512.38
2022-12-27T10:01:43.135Z,99511.03
2022-12-27T10:05:01.233Z,99513.34
2022-12-27T10:08:00.245Z,99514.13
2022-12-27T10:11:00.002Z,99506.72
2022-12-27T10:13:57.970Z,99499.00
2022-12-27T10:17:01.775Z,99492.91
2022-12-27T10:20:07.691Z,99495.19
2022-12-27T10:23:06.172Z,99499.03
2022-12-27T10:26:05.665Z,99484.78
2022-12-27T10:29:00.939Z,99490.38
2022-12-27T10:31:50.847Z,99487.25
2022-12-27T10:34:39.095Z,99481.56
2022-12-27T10:37:34.191Z,99470.59
2022-12-27T10:40:34.685Z,99465.41
2022-12-27T10:43:31.453Z,99453.34
2022-12-27T10:46:27.639Z,99461.06
2022-12-27T10:49:28.470Z,99465.00
2022-12-27T10:52:22.624Z,99453.69
2022-12-27T10:55:38.516Z,99455.25
2022-12-27T10:58:39.724Z,99448.38
2022-12-27T11:01:29.941Z,99450.78
2022-12-27T11:04:21.740Z,99445.69
2022-12-27T11:07:19.820Z,99449.75
2022-12-27T11:10:17.799Z,99441.03
2022-12-27T11:13:11.578Z,99443.78
2022-12-27T11:15:59.391Z,99444.03
2022-12-27T11:18:52.984Z,99429.16
2022-12-27T11:21:41.478Z,99431.06
2022-12-27T11:24:31.639Z,99428.53
2022-12-27T11:27:26.049Z,99429.13
2022-12-27T11:30:25.372Z,99422.78
2022-12-27T11:33:28.011Z,99435.53
2022-12-27T11:36:27.349Z,99432.00
2022-12-27T11:39:43.008Z,99416.91
2022-12-27T11:42:39.949Z,99408.19
2022-12-27T11:45:38.179Z,99420.25
2022-12-27T11:48:31.283Z,99416.47
2022-12-27T11:51:50.363Z,99411.16
2022-12-27T11:55:22.538Z,99406.69
2022-12-27T11:58:39.701Z,99405.34
2022-12-27T12:02:08.043Z,99414.41
2022-12-27T12:05:44.000Z,99400.41
2022-12-27T12:09:05.324Z,99402.25
2022-12-27T12:12:27.762Z,99409.84
2022-12-27T12:16:01.661Z,99408.41
2022-12-27T12:19:23.211Z,99402.69
2022-12-27T12:22:37.969Z,99398.28
2022-12-27T12:26:14.947Z,99394.31
2022-12-27T12:29:40.923Z,99393.00
2022-12-27T12:32:48.874Z,99400.69
2022-12-27T12:36:12.249Z,99406.19
2022-12-27T12:39:15.610Z,99404.97
2022-12-27T12:42:23.238Z,99396.50
2022-12-27T12:45:53.050Z,99392.94
2022-12-27T12:49:23.591Z,99402.06
2022-12-27T12:52:44.604Z,99404.38
2022-12-27T12:55:52.653Z,99408.28
2022-12-27T12:58:55.816Z,99400.56
2022-12-27T13:02:04.506Z,99393.22
2022-12-27T13:05:13.696Z,99401.84
2022-12-27T13:08:15.154Z,99390.66
2022-12-27T13:11:26.160Z,99397.97
2022-12-27T13:14:38.285Z,99397.44
2022-12-27T13:17:43.053Z,99395.75
2022-12-27T13:21:08.132Z,99394.06
2022-12-27T13:24:11.788Z,99387.81
2022-12-27T13:27:14.330Z,99391.44
2022-12-27T13:30:20.283Z,99399.16
2022-12-27T13:33:37.215Z,99389.28
2022-12-27T13:36:35.605Z,99391.09
2022-12-27T13:39:43.178Z,99386.03
2022-12-27T13:43:16.943Z,99395.00
2022-12-27T13:46:19.328Z,99389.38
2022-12-27T13:49:35.777Z,99389.38
2022-12-27T13:52:59.260Z,99390.78
2022-12-27T13:56:35.258Z,99388.88
2022-12-27T13:59:53.590Z,99393.44
2022-12-27T14:03:37.657Z,99394.72
2022-12-27T14:07:13.524Z,99405.94
2022-12-27T14:10:32.056Z,99411.00
2022-12-27T14:13:26.540Z,99410.25
2022-12-27T14:16:46.808Z,99415.75
2022-12-27T14:20:04.714Z,99424.16
2022-12-27T14:23:27.435Z,99426.03
2022-12-27T14:27:25.691Z,99427.94
2022-12-27T14:31:12.949Z,99439.69
2022-12-27T14:35:07.585Z,99427.09
2022-12-27T14:38:41.449Z,99427.50
2022-12-27T14:42:19.960Z,99433.66
2022-12-27T14:46:08.513Z,99439.66
2022-12-27T14:49:44.850Z,99435.84
2022-12-27T14:53:42.143Z,99437.63
2022-12-27T14:56:38.237Z,99443.13
2022-12-27T14:59:44.030Z,99438.81
2022-12-27T15:03:15.740Z,99442.63
2022-12-27T15:06:21.497Z,99445.09
2022-12-27T15:09:26.724Z,99439.09
2022-12-27T15:12:30.373Z,99434.66
2022-12-27T15:15:44.407Z,99435.72
2022-12-27T15:19:05.014Z,99433.16
2022-12-27T15:22:12.540Z,99433.75
2022-12-27T15:25:22.431Z,99437.34
2022-12-27T15:28:21.212Z,99433.50
2022-12-27T15:31:22.673Z,99428.19
2022-12-27T15:34:38.601Z,99428.56
2022-12-27T15:38:10.672Z,99430.38
2022-12-27T15:41:31.532Z,99427.41
2022-12-27T15:44:51.219Z,99433.44
2022-12-27T15:48:13.961Z,99438.44
2022-12-27T15:51:13.931Z,99435.66
2022-12-27T15:54:51.865Z,99425.84
2022-12-27T15:58:09.419Z,99419.84
2022-12-27T16:01:29.543Z,99432.84
2022-12-27T16:04:50.346Z,99430.84
2022-12-27T16:07:46.873Z,99434.13
2022-12-27T16:10:52.547Z,99431.28
2022-12-27T16:13:51.071Z,99432.84
2022-12-27T16:16:57.410Z,99436.97
2022-12-27T16:20:13.489Z,99433.28
2022-12-27T16:23:06.773Z,99431.44
2022-12-27T16:26:03.962Z,99433.69
2022-12-27T16:29:01.495Z,99430.88
2022-12-27T16:31:52.509Z,99433.19
2022-12-27T16:34:41.590Z,99441.13
2022-12-27T16:37:35.304Z,99445.78
2022-12-27T16:40:50.193Z,99447.38
2022-12-27T16:44:04.609Z,99443.72
2022-12-27T16:47:24.232Z,99442.88
2022-12-27T16:50:50.074Z,99440.66
2022-12-27T16:54:17.608Z,99437.63
2022-12-27T16:57:43.142Z,99445.03
2022-12-27T17:00:43.809Z,99442.81
2022-12-27T17:03:51.293Z,99441.47
2022-12-27T17:06:59.165Z,99442.00
2022-12-27T17:09:46.869Z,99441.59
2022-12-27T17:12:35.112Z,99437.59
2022-12-27T17:15:26.514Z,99434.50
2022-12-27T17:18:31.942Z,99437.13
2022-12-27T17:21:30.408Z,99432.34
2022-12-27T17:24:21.845Z,99430.97
2022-12-27T17:27:27.675Z,99427.75
2022-12-27T17:30:22.389Z,99420.13
2022-12-27T17:33:31.192Z,99415.16
2022-12-27T17:36:38.094Z,99421.59
2022-12-27T17:39:50.415Z,99412.38
2022-12-27T17:43:21.338Z,99417.94
2022-12-27T17:46:33.762Z,99413.84
2022-12-27T17:49:33.221Z,99405.53
2022-12-27T17:52:44.814Z,99403.28
2022-12-27T17:55:50.483Z,99400.88
2022-12-27T17:58:39.558Z,99402.13
2022-12-27T18:01:30.566Z,99403.28
2022-12-27T18:04:25.697Z,99400.03
2022-12-27T18:07:16.458Z,99400.38
2022-12-27T18:10:16.077Z,99392.06
2022-12-27T18:13:08.107Z,99395.03
2022-12-27T18:15:57.685Z,99386.63
2022-12-27T18:18:59.813Z,99386.00
2022-12-27T18:21:58.739Z,99385.28
2022-12-27T18:24:46.797Z,99384.72
2022-12-27T18:27:35.768Z,99378.06
2022-12-27T18:30:23.374Z,99392.31
2022-12-27T18:33:14.931Z,99392.66
2022-12-27T18:36:07.134Z,99384.19
2022-12-27T18:39:03.181Z,99394.00
2022-12-27T18:41:54.608Z,99394.22
2022-12-27T18:44:49.366Z,99390.13
2022-12-27T18:47:46.328Z,99390.38
2022-12-27T18:50:36.258Z,99385.28
2022-12-27T18:53:26.621Z,99375.09
2022-12-27T18:56:32.531Z,99384.94
2022-12-27T18:59:26.487Z,99382.47
2022-12-27T19:02:37.010Z,99388.84
2022-12-27T19:05:30.978Z,99386.53
2022-12-27T19:08:20.859Z,99384.81
2022-12-27T19:11:09.541Z,99386.81
2022-12-27T19:14:01.961Z,99388.63
2022-12-27T19:16:55.092Z,99375.75
2022-12-27T19:19:48.555Z,99368.09
2022-12-27T19:22:49.842Z,99366.69
2022-12-27T19:25:39.687Z,99363.41
2022-12-27T19:28:31.078Z,99360.09
2022-12-27T19:31:24.150Z,99362.75
2022-12-27T19:34:18.592Z,99372.41
2022-12-27T19:37:08.542Z,99370.00
2022-12-27T19:39:57.462Z,99374.53
2022-12-27T19:42:46.650Z,99375.56
2022-12-27T19:45:42.080Z,99375.56
2022-12-27T19:48:31.472Z,99386.00
2022-12-27T19:51:21.389Z,99380.16
2022-12-27T19:54:15.810Z,99384.69
2022-12-27T19:57:03.321Z,99384.81
2022-12-27T19:59:51.120Z,99394.63
2022-12-27T20:02:39.236Z,99397.44
2022-12-27T20:06:11.811Z,99391.53
2022-12-27T20:08:40.207Z,99385.53
2022-12-27T20:11:31.362Z,99380.38
2022-12-27T20:14:19.128Z,99377.91
2022-12-27T20:17:06.548Z,99366.00
2022-12-27T20:19:53.959Z,99356.50
2022-12-27T20:22:42.891Z,99362.59
2022-12-27T20:25:36.380Z,99361.03
2022-12-27T20:28:24.177Z,99356.75
2022-12-27T20:31:18.267Z,99360.28
2022-12-27T20:34:06.636Z,99355.25
2022-12-27T20:36:55.423Z,99350.22
2022-12-27T20:39:52.142Z,99345.97
2022-12-27T20:42:39.989Z,99341.72
2022-12-27T20:45:34.210Z,99343.59
2022-12-27T20:48:21.743Z,99335.03
2022-12-27T20:51:10.821Z,99327.34
2022-12-27T20:54:01.719Z,99324.00
2022-12-27T20:56:51.096Z,99319.81
2022-12-27T20:59:39.061Z,99324.31
2022-12-27T21:02:30.133Z,99317.59
2022-12-27T21:05:18.497Z,99316.84
2022-12-27T21:08:10.045Z,99315.94
2022-12-27T21:10:57.979Z,99319.63
2022-12-27T21:13:49.108Z,99315.44
2022-12-27T21:16:38.693Z,99303.44
2022-12-27T21:19:26.295Z,99307.84
2022-12-27T21:22:14.084Z,99302.66
2022-12-27T21:25:05.623Z,99304.53
2022-12-27T21:27:53.551Z,99308.09
2022-12-27T21:30:42.914Z,99301.19
2022-12-27T21:33:31.296Z,99295.22
2022-12-27T21:36:21.509Z,99297.13
2022-12-27T21:39:09.711Z,99289.53
2022-12-27T21:41:58.903Z,99292.31
2022-12-27T21:44:46.945Z,99301.00
2022-12-27T21:47:36.262Z,99295.91
2022-12-27T21:50:23.810Z,99294.19
2022-12-27T21:53:11.230Z,99291.56
2022-12-27T21:55:59.542Z,99274.94
2022-12-27T21:58:48.155Z,99284.44
2022-12-27T22:01:50.124Z,99277.41
2022-12-27T22:04:41.673Z,99284.56
2022-12-27T22:07:29.549Z,99282.00
2022-12-27T22:10:17.430Z,99276.13
2022-12-27T22:13:05.084Z,99274.50
2022-12-27T22:15:57.456Z,99271.50
2022-12-27T22:18:45.694Z,99271.69
2022-12-27T22:21:37.773Z,99274.00
2022-12-27T22:24:25.470Z,99267.22
2022-12-27T22:27:12.979Z,99265.72
2022-12-27T22:30:00.419Z,99257.19
2022-12-27T22:32:47.891Z,99251.19
2022-12-27T22:35:35.685Z,99258.22
2022-12-27T22:38:24.849Z,99250.47
2022-12-27T22:41:15.866Z,99253.97
2022-12-27T22:44:07.044Z,99260.16
2022-12-27T22:50:03.159Z,99263.72
2022-12-27T22:52:51.041Z,99255.22
2022-12-27T22:55:43.603Z,99256.19
2022-12-27T22:58:33.816Z,99257.22
2022-12-27T23:01:27.702Z,99258.91
2022-12-27T23:04:15.883Z,99251.16
2022-12-27T23:07:03.468Z,99246.13
2022-12-27T23:09:51.018Z,99254.03
2022-12-27T23:12:39.974Z,99265.50
2022-12-27T23:15:28.353Z,99264.75
2022-12-27T23:18:16.317Z,99266.53
2022-12-27T23:21:20.948Z,99255.25
2022-12-27T23:24:12.694Z,99244.94
2022-12-27T23:27:00.912Z,99246.72
2022-12-27T23:29:51.448Z,99253.81
2022-12-27T23:32:40.488Z,99253.88
2022-12-27T23:35:28.564Z,99248.78
2022-12-27T23:38:16.811Z,99241.09
2022-12-27T23:41:10.946Z,99235.19
2022-12-27T23:44:03.082Z,99240.38
2022-12-27T23:46:52.449Z,99237.88
2022-12-27T23:49:39.987Z,99238.00
2022-12-27T23:52:27.920Z,99233.72
2022-12-27T23:55:16.058Z,99235.41
2022-12-27T23:58:04.097Z,99216.00
